createdAt,value
2023-04-09T00:02:22.654Z,98884.50
2023-04-09T00:04:56.417Z,98877.66
2023-04-09T00:07:27.607Z,98872.06
2023-04-09T00:09:56.560Z,98881.97
2023-04-09T00:12:26.906Z,98886.78
2023-04-09T00:14:57.359Z,98878.31
2023-04-09T00:17:27.114Z,98883.13
2023-04-09T00:19:58.836Z,98888.31
2023-04-09T00:22:29.099Z,98880.81
2023-04-09T00:24:59.178Z,98876.56
2023-04-09T00:27:28.699Z,98883.00
2023-04-09T00:29:58.159Z,98879.75
2023-04-09T00:32:29.249Z,98875.66
2023-04-09T00:34:59.602Z,98883.34
2023-04-09T00:37:29.084Z,98881.59
2023-04-09T00:39:58.648Z,98879.28
2023-04-09T00:42:27.833Z,98885.56
2023-04-09T00:44:57.890Z,98883.94
2023-04-09T00:47:28.109Z,98881.75
2023-04-09T00:49:58.867Z,98874.00
2023-04-09T00:52:31.117Z,98877.13
2023-04-09T00:55:03.565Z,98878.25
2023-04-09T00:57:32.534Z,98879.34
2023-04-09T01:00:01.307Z,98886.19
2023-04-09T01:02:31.113Z,98879.34
2023-04-09T01:05:01.272Z,98885.34
2023-04-09T01:07:54.307Z,98876.88
2023-04-09T01:10:30.594Z,98881.25
2023-04-09T01:13:13.099Z,98880.97
2023-04-09T01:15:48.329Z,98878.50
2023-04-09T01:18:27.965Z,98881.56
2023-04-09T01:21:05.167Z,98879.91
2023-04-09T01:23:59.775Z,98876.47
2023-04-09T01:26:55.533Z,98876.34
2023-04-09T01:29:29.473Z,98879.09
2023-04-09T01:32:01.385Z,98875.00
2023-04-09T01:34:32.961Z,98872.25
2023-04-09T01:37:05.522Z,98874.72
2023-04-09T01:39:34.537Z,98870.38
2023-04-09T01:42:05.862Z,98879.13
2023-04-09T01:44:38.573Z,98878.16
2023-04-09T01:47:10.924Z,98874.22
2023-04-09T01:49:43.951Z,98880.22
2023-04-09T01:52:13.466Z,98875.31
2023-04-09T01:54:44.545Z,98876.31
2023-04-09T01:57:14.129Z,98875.06
2023-04-09T01:59:45.152Z,98872.34
2023-04-09T02:02:23.063Z,98872.06
2023-04-09T02:04:59.197Z,98878.63
2023-04-09T02:07:39.205Z,98874.00
2023-04-09T02:10:12.761Z,98876.19
2023-04-09T02:12:51.522Z,98875.50
2023-04-09T02:15:25.477Z,98881.13
2023-04-09T02:17:54.468Z,98873.59
2023-04-09T02:20:25.298Z,98884.13
2023-04-09T02:22:54.801Z,98895.03
2023-04-09T02:25:26.886Z,98890.97
2023-04-09T02:27:57.089Z,98883.84
2023-04-09T02:30:28.301Z,98891.53
2023-04-09T02:32:57.711Z,98886.31
2023-04-09T02:35:27.261Z,98876.75
2023-04-09T02:37:57.296Z,98887.69
2023-04-09T02:40:26.418Z,98884.94
2023-04-09T02:42:56.114Z,98887.69
2023-04-09T02:45:26.954Z,98881.00
2023-04-09T02:47:55.828Z,98880.84
2023-04-09T02:50:25.749Z,98887.00
2023-04-09T02:52:57.762Z,98880.84
2023-04-09T02:55:27.740Z,98877.59
2023-04-09T02:57:58.764Z,98883.59
2023-04-09T03:00:31.087Z,98885.09
2023-04-09T03:03:00.804Z,98875.38
2023-04-09T03:05:31.763Z,98880.84
2023-04-09T03:08:01.336Z,98872.97
2023-04-09T03:10:30.812Z,98869.53
2023-04-09T03:13:00.250Z,98869.94
2023-04-09T03:15:31.563Z,98862.44
2023-04-09T03:18:01.521Z,98871.97
2023-04-09T03:20:30.463Z,98869.06
2023-04-09T03:22:59.985Z,98864.19
2023-04-09T03:25:30.048Z,98862.38
2023-04-09T03:27:59.673Z,98857.59
2023-04-09T03:30:29.946Z,98858.84
2023-04-09T03:33:00.622Z,98852.16
2023-04-09T03:35:30.744Z,98861.56
2023-04-09T03:38:00.835Z,98854.75
2023-04-09T03:40:32.256Z,98856.25
2023-04-09T03:43:02.308Z,98854.59
2023-04-09T03:45:34.193Z,98851.59
2023-04-09T03:48:03.709Z,98849.69
2023-04-09T03:50:39.041Z,98846.53
2023-04-09T03:53:08.694Z,98842.56
2023-04-09T03:55:39.475Z,98850.06
2023-04-09T03:58:09.385Z,98852.94
2023-04-09T04:00:41.244Z,98840.91
2023-04-09T04:03:15.269Z,98851.03
2023-04-09T04:05:44.948Z,98851.19
2023-04-09T04:08:14.361Z,98852.94
2023-04-09T04:10:43.220Z,98857.31
2023-04-09T04:13:12.376Z,98854.00
2023-04-09T04:15:43.828Z,98851.56
2023-04-09T04:18:13.704Z,98866.13
2023-04-09T04:20:43.700Z,98858.50
2023-04-09T04:23:14.265Z,98865.56
2023-04-09T04:25:44.447Z,98859.72
2023-04-09T04:28:14.539Z,98862.97
2023-04-09T04:30:45.793Z,98867.31
2023-04-09T04:33:15.880Z,98857.22
2023-04-09T04:35:44.745Z,98862.66
2023-04-09T04:38:14.257Z,98866.22
2023-04-09T04:40:44.103Z,98873.31
2023-04-09T04:43:13.952Z,98872.88
2023-04-09T04:45:44.783Z,98869.47
2023-04-09T04:48:15.311Z,98868.09
2023-04-09T04:50:44.731Z,98880.50
2023-04-09T04:53:14.195Z,98870.53
2023-04-09T04:55:43.691Z,98875.44
2023-04-09T04:58:13.047Z,98868.81
2023-04-09T05:00:42.565Z,98872.88
2023-04-09T05:03:13.209Z,98875.09
2023-04-09T05:05:43.376Z,98868.25
2023-04-09T05:08:13.474Z,98875.16
2023-04-09T05:10:44.571Z,98871.38
2023-04-09T05:13:14.471Z,98871.94
2023-04-09T05:15:44.294Z,98879.56
2023-04-09T05:18:15.295Z,98875.34
2023-04-09T05:20:45.295Z,98876.97
2023-04-09T05:23:14.259Z,98871.78
2023-04-09T05:25:43.646Z,98873.69
2023-04-09T05:28:14.200Z,98876.19
2023-04-09T05:30:43.680Z,98886.28
2023-04-09T05:33:14.476Z,98880.53
2023-04-09T05:35:44.894Z,98881.72
2023-04-09T05:38:15.286Z,98883.63
2023-04-09T05:40:46.461Z,98883.75
2023-04-09T05:43:18.983Z,98890.81
2023-04-09T05:45:49.999Z,98894.13
2023-04-09T05:48:21.159Z,98889.88
2023-04-09T05:50:55.604Z,98891.53
2023-04-09T05:53:25.838Z,98888.13
2023-04-09T05:55:55.582Z,98888.94
2023-04-09T05:58:25.560Z,98898.22
2023-04-09T06:00:55.669Z,98894.13
2023-04-09T06:03:26.574Z,98889.88
2023-04-09T06:05:56.073Z,98888.69
2023-04-09T06:08:25.622Z,98892.22
2023-04-09T06:10:53.987Z,98889.50
2023-04-09T06:13:23.366Z,98892.78
2023-04-09T06:15:53.927Z,98892.41
2023-04-09T06:18:23.594Z,98898.00
2023-04-09T06:21:04.770Z,98891.19
2023-04-09T06:23:35.059Z,98889.28
2023-04-09T06:26:04.545Z,98890.00
2023-04-09T06:28:34.733Z,98899.13
2023-04-09T06:31:04.336Z,98890.41
2023-04-09T06:33:34.402Z,98895.22
2023-04-09T06:36:06.424Z,98900.41
2023-04-09T06:38:36.066Z,98898.09
2023-04-09T06:41:08.923Z,98892.38
2023-04-09T06:43:38.483Z,98899.78
2023-04-09T06:46:08.891Z,98902.00
2023-04-09T06:48:37.951Z,98901.47
2023-04-09T06:51:10.030Z,98907.88
2023-04-09T06:53:40.447Z,98906.56
2023-04-09T06:56:11.884Z,98898.22
2023-04-09T06:58:41.970Z,98902.88
2023-04-09T07:01:12.853Z,98902.50
2023-04-09T07:03:41.936Z,98900.31
2023-04-09T07:06:14.032Z,98899.91
2023-04-09T07:08:44.477Z,98900.34
2023-04-09T07:11:14.230Z,98907.03
2023-04-09T07:13:43.179Z,98900.75
2023-04-09T07:16:12.623Z,98910.56
2023-04-09T07:18:41.367Z,98903.09
2023-04-09T07:21:11.739Z,98905.97
2023-04-09T07:23:41.324Z,98900.22
2023-04-09T07:26:11.553Z,98904.91
2023-04-09T07:28:42.318Z,98900.81
2023-04-09T07:31:13.669Z,98895.88
2023-04-09T07:33:44.116Z,98902.16
2023-04-09T07:36:15.869Z,98901.50
2023-04-09T07:38:47.826Z,98899.97
2023-04-09T07:41:17.719Z,98898.47
2023-04-09T07:43:46.996Z,98904.88
2023-04-09T07:46:22.688Z,98909.38
2023-04-09T07:48:55.487Z,98905.25
2023-04-09T07:51:27.288Z,98901.97
2023-04-09T07:53:58.709Z,98889.91
2023-04-09T07:56:29.492Z,98894.56
2023-04-09T07:59:00.438Z,98902.72
2023-04-09T08:01:30.359Z,98896.00
2023-04-09T08:04:03.146Z,98891.88
2023-04-09T08:06:35.041Z,98896.22
2023-04-09T08:09:04.288Z,98889.47
2023-04-09T08:11:34.966Z,98893.94
2023-04-09T08:14:06.333Z,98887.66
2023-04-09T08:16:37.760Z,98898.44
2023-04-09T08:19:08.733Z,98894.44
2023-04-09T08:21:43.789Z,98898.25
2023-04-09T08:24:13.787Z,98905.31
2023-04-09T08:26:45.098Z,98900.66
2023-04-09T08:29:16.507Z,98902.78
2023-04-09T08:31:45.966Z,98900.72
2023-04-09T08:34:17.614Z,98903.41
2023-04-09T08:36:50.103Z,98897.78
2023-04-09T08:39:20.792Z,98905.00
2023-04-09T08:41:52.375Z,98906.16
2023-04-09T08:44:22.121Z,98909.16
2023-04-09T08:46:52.696Z,98910.50
2023-04-09T08:49:22.898Z,98910.88
2023-04-09T08:51:54.205Z,98903.44
2023-04-09T08:54:27.339Z,98909.00
2023-04-09T08:56:58.827Z,98907.59
2023-04-09T08:59:28.655Z,98901.66
2023-04-09T09:02:09.981Z,98898.44
2023-04-09T09:04:51.478Z,98901.13
2023-04-09T09:07:21.785Z,98895.31
2023-04-09T09:09:56.474Z,98894.69
2023-04-09T09:12:38.235Z,98894.09
2023-04-09T09:15:28.198Z,98889.91
2023-04-09T09:18:00.081Z,98880.81
2023-04-09T09:20:29.865Z,98876.59
2023-04-09T09:23:02.230Z,98873.25
2023-04-09T09:25:31.664Z,98872.94
2023-04-09T09:28:11.403Z,98866.75
2023-04-09T09:30:42.235Z,98864.06
2023-04-09T09:33:12.856Z,98867.50
2023-04-09T09:35:54.186Z,98857.94
2023-04-09T09:38:25.196Z,98862.19
2023-04-09T09:40:56.262Z,98857.00
2023-04-09T09:43:26.103Z,98853.44
2023-04-09T09:45:58.021Z,98851.81
2023-04-09T09:48:28.329Z,98844.16
2023-04-09T09:50:58.982Z,98848.13
2023-04-09T09:53:33.936Z,98850.06
2023-04-09T09:56:03.708Z,98838.81
2023-04-09T09:58:40.044Z,98837.50
2023-04-09T10:01:14.533Z,98835.88
2023-04-09T10:03:45.629Z,98837.19
2023-04-09T10:06:17.589Z,98826.75
2023-04-09T10:08:51.903Z,98833.94
2023-04-09T10:11:23.497Z,98823.78
2023-04-09T10:13:59.678Z,98825.09
2023-04-09T10:16:30.107Z,98830.97
2023-04-09T10:19:01.474Z,98836.81
2023-04-09T10:21:43.966Z,98834.50
2023-04-09T10:24:16.994Z,98830.41
2023-04-09T10:26:47.415Z,98822.69
2023-04-09T10:29:18.329Z,98826.91
2023-04-09T10:31:50.796Z,98821.03
2023-04-09T10:34:22.869Z,98812.28
2023-04-09T10:36:54.804Z,98822.72
2023-04-09T10:39:30.398Z,98820.72
2023-04-09T10:42:02.405Z,98822.31
2023-04-09T10:44:33.141Z,98827.84
2023-04-09T10:47:02.674Z,98826.34
2023-04-09T10:49:39.670Z,98820.13
2023-04-09T10:52:12.112Z,98812.91
2023-04-09T10:54:47.738Z,98809.94
2023-04-09T10:57:22.837Z,98809.13
2023-04-09T10:59:54.207Z,98815.19
2023-04-09T11:03:27.972Z,98806.00
2023-04-09T11:06:03.374Z,98805.66
2023-04-09T11:08:34.071Z,98807.91
2023-04-09T11:11:04.881Z,98812.81
2023-04-09T11:13:35.176Z,98815.41
2023-04-09T11:16:07.166Z,98796.91
2023-04-09T11:18:37.789Z,98804.22
2023-04-09T11:21:09.642Z,98802.28
2023-04-09T11:23:40.294Z,98807.81
2023-04-09T11:26:12.855Z,98798.47
2023-04-09T11:28:44.854Z,98802.53
2023-04-09T11:31:15.479Z,98798.94
2023-04-09T11:33:49.002Z,98791.06
2023-04-09T11:36:18.568Z,98791.84
2023-04-09T11:38:50.819Z,98783.81
2023-04-09T11:41:34.004Z,98790.00
2023-04-09T11:44:05.600Z,98791.09
2023-04-09T11:46:35.876Z,98794.81
2023-04-09T11:49:06.220Z,98785.94
2023-04-09T11:51:36.126Z,98792.47
2023-04-09T11:54:05.336Z,98790.50
2023-04-09T11:56:37.741Z,98788.50
2023-04-09T11:59:06.346Z,98793.38
2023-04-09T12:01:36.506Z,98793.69
2023-04-09T12:04:07.488Z,98787.09
2023-04-09T12:06:43.381Z,98785.09
2023-04-09T12:09:14.361Z,98792.44
2023-04-09T12:11:47.692Z,98783.00
2023-04-09T12:14:19.383Z,98781.03
2023-04-09T12:16:52.395Z,98789.16
2023-04-09T12:19:23.403Z,98783.94
2023-04-09T12:21:56.427Z,98785.56
2023-04-09T12:24:28.722Z,98785.19
2023-04-09T12:27:00.174Z,98789.47
2023-04-09T12:29:30.711Z,98790.72
2023-04-09T12:32:00.140Z,98777.88
2023-04-09T12:34:29.675Z,98785.38
2023-04-09T12:36:58.629Z,98778.94
2023-04-09T12:39:28.841Z,98780.41
2023-04-09T12:42:01.132Z,98772.53
2023-04-09T12:44:31.116Z,98777.59
2023-04-09T12:47:01.095Z,98780.03
2023-04-09T12:49:31.207Z,98783.28
2023-04-09T12:52:00.601Z,98773.81
2023-04-09T12:54:30.245Z,98772.78
2023-04-09T12:57:02.036Z,98769.78
2023-04-09T12:59:33.062Z,98770.44
2023-04-09T13:02:02.373Z,98759.22
2023-04-09T13:04:31.587Z,98753.88
2023-04-09T13:07:01.690Z,98751.84
2023-04-09T13:09:30.053Z,98753.28
2023-04-09T13:12:00.819Z,98752.94
2023-04-09T13:14:29.250Z,98752.13
2023-04-09T13:16:58.301Z,98749.50
2023-04-09T13:19:28.882Z,98749.31
2023-04-09T13:21:58.404Z,98747.13
2023-04-09T13:24:27.817Z,98744.13
2023-04-09T13:26:56.767Z,98753.47
2023-04-09T13:29:29.993Z,98752.44
2023-04-09T13:32:02.300Z,98750.63
2023-04-09T13:34:32.802Z,98743.41
2023-04-09T13:37:03.113Z,98740.63
2023-04-09T13:39:31.820Z,98741.44
2023-04-09T13:42:07.187Z,98749.75
2023-04-09T13:44:42.751Z,98735.63
2023-04-09T13:47:13.129Z,98745.75
2023-04-09T13:49:42.600Z,98741.31
2023-04-09T13:52:12.369Z,98739.69
2023-04-09T13:54:43.198Z,98738.88
2023-04-09T13:57:13.252Z,98728.19
2023-04-09T13:59:44.074Z,98720.94
2023-04-09T14:02:13.670Z,98723.81
2023-04-09T14:04:44.028Z,98729.69
2023-04-09T14:07:13.973Z,98721.44
2023-04-09T14:09:44.581Z,98716.19
2023-04-09T14:12:14.669Z,98720.88
2023-04-09T14:14:44.858Z,98711.63
2023-04-09T14:17:14.442Z,98723.81
2023-04-09T14:19:43.825Z,98718.19
2023-04-09T14:22:13.510Z,98720.44
2023-04-09T14:24:42.567Z,98725.47
2023-04-09T14:27:14.676Z,98722.69
2023-04-09T14:29:46.090Z,98725.91
2023-04-09T14:32:16.434Z,98729.38
2023-04-09T14:34:47.038Z,98719.66
2023-04-09T14:37:17.186Z,98716.44
2023-04-09T14:39:46.621Z,98716.59
2023-04-09T14:42:15.635Z,98719.25
2023-04-09T14:44:46.538Z,98720.06
2023-04-09T14:47:17.029Z,98721.88
2023-04-09T14:49:46.950Z,98714.63
2023-04-09T14:52:17.070Z,98710.78
2023-04-09T14:54:47.764Z,98718.09
2023-04-09T14:57:17.291Z,98716.91
2023-04-09T14:59:48.535Z,98710.84
2023-04-09T15:02:19.569Z,98709.22
2023-04-09T15:04:50.014Z,98709.63
2023-04-09T15:07:20.916Z,98695.13
2023-04-09T15:09:51.595Z,98691.72
2023-04-09T15:12:20.672Z,98702.09
2023-04-09T15:14:52.709Z,98689.00
2023-04-09T15:17:22.350Z,98688.44
2023-04-09T15:19:51.692Z,98689.03
2023-04-09T15:22:23.239Z,98688.44
2023-04-09T15:24:53.457Z,98685.81
2023-04-09T15:27:22.375Z,98685.59
2023-04-09T15:29:52.926Z,98684.41
2023-04-09T15:32:22.665Z,98674.31
2023-04-09T15:34:53.105Z,98679.63
2023-04-09T15:37:23.412Z,98675.00
2023-04-09T15:39:52.898Z,98678.28
2023-04-09T15:42:23.607Z,98682.16
2023-04-09T15:44:54.364Z,98671.69
2023-04-09T15:47:25.371Z,98672.91
2023-04-09T15:49:55.833Z,98674.97
2023-04-09T15:52:26.655Z,98680.03
2023-04-09T15:54:56.546Z,98681.44
2023-04-09T15:57:26.676Z,98681.03
2023-04-09T15:59:57.655Z,98677.97
2023-04-09T16:02:27.856Z,98684.25
2023-04-09T16:04:57.937Z,98681.00
2023-04-09T16:07:27.790Z,98682.41
2023-04-09T16:09:58.966Z,98680.53
2023-04-09T16:12:28.447Z,98681.94
2023-04-09T16:14:59.799Z,98677.66
2023-04-09T16:17:29.178Z,98688.19
2023-04-09T16:19:58.841Z,98693.84
2023-04-09T16:22:27.873Z,98689.78
2023-04-09T16:24:57.981Z,98691.59
2023-04-09T16:27:27.607Z,98683.66
2023-04-09T16:30:00.191Z,98697.59
2023-04-09T16:32:29.088Z,98694.16
2023-04-09T16:35:00.676Z,98691.72
2023-04-09T16:37:31.703Z,98699.41
2023-04-09T16:40:01.304Z,98702.03
2023-04-09T16:42:33.396Z,98695.13
2023-04-09T16:45:05.130Z,98702.75
2023-04-09T16:47:35.103Z,98701.72
2023-04-09T16:50:04.776Z,98697.84
2023-04-09T16:52:35.922Z,98694.75
2023-04-09T16:55:05.823Z,98702.75
2023-04-09T16:57:34.746Z,98693.38
2023-04-09T17:00:08.675Z,98697.41
2023-04-09T17:02:39.536Z,98698.78
2023-04-09T17:05:10.634Z,98702.16
2023-04-09T17:07:40.785Z,98706.16
2023-04-09T17:10:10.961Z,98702.50
2023-04-09T17:12:42.758Z,98702.06
2023-04-09T17:15:13.869Z,98704.84
2023-04-09T17:17:43.722Z,98696.75
2023-04-09T17:20:14.343Z,98697.94
2023-04-09T17:22:44.229Z,98691.59
2023-04-09T17:25:15.315Z,98692.78
2023-04-09T17:27:46.009Z,98692.78
2023-04-09T17:30:17.137Z,98683.19
2023-04-09T17:32:49.193Z,98682.38
2023-04-09T17:35:19.525Z,98685.56
2023-04-09T17:37:48.914Z,98685.31
2023-04-09T17:40:19.290Z,98698.38
2023-04-09T17:42:48.768Z,98692.41
2023-04-09T17:45:20.506Z,98695.31
2023-04-09T17:47:51.668Z,98705.59
2023-04-09T17:50:22.279Z,98700.78
2023-04-09T17:52:52.991Z,98695.84
2023-04-09T17:55:23.518Z,98702.97
2023-04-09T17:57:54.811Z,98701.78
2023-04-09T18:00:28.421Z,98700.72
2023-04-09T18:02:58.848Z,98694.22
2023-04-09T18:05:29.983Z,98693.75
2023-04-09T18:08:01.509Z,98698.09
2023-04-09T18:10:32.250Z,98692.50
2023-04-09T18:13:01.910Z,98692.56
2023-04-09T18:15:33.801Z,98697.63
2023-04-09T18:18:03.569Z,98696.81
2023-04-09T18:20:34.251Z,98708.03
2023-04-09T18:23:04.819Z,98704.47
2023-04-09T18:25:35.238Z,98699.31
2023-04-09T18:28:05.233Z,98708.56
2023-04-09T18:30:38.820Z,98709.75
2023-04-09T18:33:08.821Z,98719.84
2023-04-09T18:35:39.512Z,98722.19
2023-04-09T18:38:11.137Z,98736.94
2023-04-09T18:40:53.135Z,98739.56
2023-04-09T18:43:22.211Z,98741.88
2023-04-09T18:45:54.374Z,98739.94
2023-04-09T18:48:23.659Z,98745.88
2023-04-09T18:50:52.989Z,98740.97
2023-04-09T18:53:23.055Z,98736.75
2023-04-09T18:55:53.589Z,98738.72
2023-04-09T18:58:24.728Z,98736.63
2023-04-09T19:00:56.710Z,98737.81
2023-04-09T19:03:28.691Z,98738.50
2023-04-09T19:06:01.211Z,98738.84
2023-04-09T19:08:35.989Z,98738.22
2023-04-09T19:11:08.199Z,98735.94
2023-04-09T19:13:39.224Z,98736.25
2023-04-09T19:16:11.432Z,98741.97
2023-04-09T19:18:40.528Z,98746.22
2023-04-09T19:21:11.662Z,98746.72
2023-04-09T19:23:41.265Z,98749.03
2023-04-09T19:26:11.229Z,98746.59
2023-04-09T19:28:40.011Z,98739.88
2023-04-09T19:31:13.233Z,98744.81
2023-04-09T19:33:42.441Z,98747.75
2023-04-09T19:36:13.608Z,98750.34
2023-04-09T19:38:43.106Z,98743.81
2023-04-09T19:41:12.654Z,98745.63
2023-04-09T19:43:44.069Z,98745.44
2023-04-09T19:46:14.957Z,98738.78
2023-04-09T19:48:45.419Z,98742.16
2023-04-09T19:51:20.482Z,98738.91
2023-04-09T19:53:49.443Z,98747.06
2023-04-09T19:56:18.979Z,98753.59
2023-04-09T19:58:48.726Z,98743.63
2023-04-09T20:01:19.744Z,98745.06
2023-04-09T20:03:49.796Z,98737.91
2023-04-09T20:06:19.456Z,98741.97
2023-04-09T20:08:49.412Z,98738.88
2023-04-09T20:11:19.676Z,98751.41
2023-04-09T20:13:48.332Z,98742.25
2023-04-09T20:16:18.793Z,98736.69
2023-04-09T20:18:48.077Z,98741.41
2023-04-09T20:21:17.695Z,98733.91
2023-04-09T20:23:48.366Z,98738.63
2023-04-09T20:26:16.867Z,98733.91
2023-04-09T20:28:45.949Z,98728.34
2023-04-09T20:31:15.023Z,98723.06
2023-04-09T20:33:45.977Z,98733.81
2023-04-09T20:36:18.764Z,98744.69
2023-04-09T20:38:49.885Z,98741.13
2023-04-09T20:41:18.370Z,98739.50
2023-04-09T20:43:47.023Z,98738.34
2023-04-09T20:46:17.441Z,98739.97
2023-04-09T20:48:49.052Z,98736.50
2023-04-09T20:51:19.013Z,98744.41
2023-04-09T20:53:49.328Z,98744.41
2023-04-09T20:56:19.038Z,98740.47
2023-04-09T20:58:48.148Z,98744.84
2023-04-09T21:01:18.615Z,98737.63
2023-04-09T21:03:50.029Z,98738.63
2023-04-09T21:06:19.481Z,98743.25
2023-04-09T21:08:48.246Z,98739.81
2023-04-09T21:11:18.012Z,98737.53
2023-04-09T21:13:54.472Z,98741.09
2023-04-09T21:16:27.778Z,98743.50
2023-04-09T21:18:57.772Z,98745.38
2023-04-09T21:21:29.038Z,98743.47
2023-04-09T21:23:59.095Z,98741.59
2023-04-09T21:26:33.719Z,98737.50
2023-04-09T21:29:08.041Z,98729.47
2023-04-09T21:31:37.364Z,98730.59
2023-04-09T21:34:08.784Z,98723.84
2023-04-09T21:36:39.436Z,98723.72
2023-04-09T21:39:10.050Z,98722.38
2023-04-09T21:41:40.804Z,98722.91
2023-04-09T21:44:09.684Z,98720.81
2023-04-09T21:46:41.126Z,98721.25
2023-04-09T21:49:12.797Z,98728.09
2023-04-09T21:51:43.333Z,98728.09
2023-04-09T21:54:14.724Z,98732.66
2023-04-09T21:56:44.315Z,98736.50
2023-04-09T21:59:15.472Z,98735.47
2023-04-09T22:01:47.549Z,98739.34
2023-04-09T22:04:20.920Z,98742.66
2023-04-09T22:06:50.852Z,98735.47
2023-04-09T22:09:19.607Z,98745.03
2023-04-09T22:11:48.653Z,98741.09
2023-04-09T22:14:19.251Z,98734.41
2023-04-09T22:16:49.296Z,98741.28
2023-04-09T22:19:20.743Z,98736.25
2023-04-09T22:21:51.490Z,98745.69
2023-04-09T22:24:26.769Z,98748.44
2023-04-09T22:26:57.038Z,98746.72
2023-04-09T22:29:27.809Z,98748.91
2023-04-09T22:31:56.563Z,98749.88
2023-04-09T22:34:27.250Z,98750.56
2023-04-09T22:36:56.588Z,98751.63
2023-04-09T22:39:26.445Z,98754.41
2023-04-09T22:41:56.908Z,98742.38
2023-04-09T22:44:26.457Z,98742.13
2023-04-09T22:46:55.522Z,98742.94
2023-04-09T22:49:25.438Z,98740.47
2023-04-09T22:51:57.478Z,98730.16
2023-04-09T22:54:28.093Z,98732.50
2023-04-09T22:56:58.447Z,98723.34
2023-04-09T22:59:37.177Z,98726.38
2023-04-09T23:02:09.589Z,98723.66
2023-04-09T23:04:39.345Z,98723.13
2023-04-09T23:07:09.416Z,98724.75
2023-04-09T23:09:39.362Z,98730.25
2023-04-09T23:12:09.195Z,98725.75
2023-04-09T23:14:38.688Z,98732.59
2023-04-09T23:17:08.829Z,98733.28
2023-04-09T23:19:38.772Z,98735.47
2023-04-09T23:22:09.073Z,98739.72
2023-04-09T23:24:39.013Z,98746.16
2023-04-09T23:27:08.972Z,98736.06
2023-04-09T23:29:38.419Z,98743.44
2023-04-09T23:32:09.305Z,98737.56
2023-04-09T23:34:39.502Z,98738.81
2023-04-09T23:37:11.492Z,98731.44
2023-04-09T23:39:40.351Z,98733.63
2023-04-09T23:42:08.774Z,98737.16
2023-04-09T23:44:38.267Z,98736.09
2023-04-09T23:47:08.313Z,98736.88
2023-04-09T23:49:38.592Z,98733.91
2023-04-09T23:52:09.473Z,98736.63
2023-04-09T23:54:40.194Z,98730.34
2023-04-09T23:57:11.596Z,98733.63
2023-04-09T23:59:41.184Z,98727.75
